sensor_id;sensor_type;location;lat;lon;timestamp;temperature;humidity
66670;DHT22;53568;52.164;4.472;2023-06-04T00:02:12;15.31;65.17
66670;DHT22;53568;52.164;4.472;2023-06-04T00:04:38;15.49;64.82
66670;DHT22;53568;52.164;4.472;2023-06-04T00:07:04;15.51;64.63
66670;DHT22;53568;52.164;4.472;2023-06-04T00:09:30;15.50;64.71
66670;DHT22;53568;52.164;4.472;2023-06-04T00:11:56;15.51;64.83
66670;DHT22;53568;52.164;4.472;2023-06-04T00:14:21;15.40;64.81
66670;DHT22;53568;52.164;4.472;2023-06-04T00:16:47;15.55;64.35
66670;DHT22;53568;52.164;4.472;2023-06-04T00:19:13;15.43;64.73
66670;DHT22;53568;52.164;4.472;2023-06-04T00:21:38;15.41;64.78
66670;DHT22;53568;52.164;4.472;2023-06-04T00:24:04;15.54;64.42
66670;DHT22;53568;52.164;4.472;2023-06-04T00:26:29;15.54;64.24
66670;DHT22;53568;52.164;4.472;2023-06-04T00:28:55;15.27;65.12
66670;DHT22;53568;52.164;4.472;2023-06-04T00:31:21;15.44;64.82
66670;DHT22;53568;52.164;4.472;2023-06-04T00:33:49;15.51;64.66
66670;DHT22;53568;52.164;4.472;2023-06-04T00:36:15;15.58;63.98
66670;DHT22;53568;52.164;4.472;2023-06-04T00:38:41;15.50;63.57
66670;DHT22;53568;52.164;4.472;2023-06-04T00:41:06;15.40;63.83
66670;DHT22;53568;52.164;4.472;2023-06-04T00:43:32;15.38;63.99
66670;DHT22;53568;52.164;4.472;2023-06-04T00:45:58;15.37;63.92
66670;DHT22;53568;52.164;4.472;2023-06-04T00:48:25;15.37;63.60
66670;DHT22;53568;52.164;4.472;2023-06-04T00:50:53;15.36;63.47
66670;DHT22;53568;52.164;4.472;2023-06-04T00:53:20;15.33;63.58
66670;DHT22;53568;52.164;4.472;2023-06-04T00:55:46;15.23;63.82
66670;DHT22;53568;52.164;4.472;2023-06-04T00:58:12;15.37;63.35
66670;DHT22;53568;52.164;4.472;2023-06-04T01:00:38;15.47;62.56
66670;DHT22;53568;52.164;4.472;2023-06-04T01:03:11;15.43;62.55
66670;DHT22;53568;52.164;4.472;2023-06-04T01:05:51;15.43;62.51
66670;DHT22;53568;52.164;4.472;2023-06-04T01:08:19;15.37;62.67
66670;DHT22;53568;52.164;4.472;2023-06-04T01:10:52;15.28;62.96
66670;DHT22;53568;52.164;4.472;2023-06-04T01:13:17;15.27;63.00
66670;DHT22;53568;52.164;4.472;2023-06-04T01:15:43;15.10;63.63
66670;DHT22;53568;52.164;4.472;2023-06-04T01:18:09;15.04;63.76
66670;DHT22;53568;52.164;4.472;2023-06-04T01:20:40;15.20;63.32
66670;DHT22;53568;52.164;4.472;2023-06-04T01:26:11;14.95;64.62
66670;DHT22;53568;52.164;4.472;2023-06-04T01:28:37;15.06;64.29
66670;DHT22;53568;52.164;4.472;2023-06-04T01:31:05;15.08;64.23
66670;DHT22;53568;52.164;4.472;2023-06-04T01:33:33;15.10;64.24
66670;DHT22;53568;52.164;4.472;2023-06-04T01:35:59;15.07;64.41
66670;DHT22;53568;52.164;4.472;2023-06-04T01:38:26;15.14;63.86
66670;DHT22;53568;52.164;4.472;2023-06-04T01:40:52;15.03;64.05
66670;DHT22;53568;52.164;4.472;2023-06-04T01:43:22;14.90;64.04
66670;DHT22;53568;52.164;4.472;2023-06-04T01:45:47;14.99;63.97
66670;DHT22;53568;52.164;4.472;2023-06-04T01:48:14;15.08;63.36
66670;DHT22;53568;52.164;4.472;2023-06-04T01:50:39;15.04;62.92
66670;DHT22;53568;52.164;4.472;2023-06-04T01:53:05;14.85;63.29
66670;DHT22;53568;52.164;4.472;2023-06-04T01:55:34;14.79;63.99
66670;DHT22;53568;52.164;4.472;2023-06-04T01:58:00;14.77;63.72
66670;DHT22;53568;52.164;4.472;2023-06-04T02:00:26;14.75;64.14
66670;DHT22;53568;52.164;4.472;2023-06-04T02:02:52;14.80;64.18
66670;DHT22;53568;52.164;4.472;2023-06-04T02:05:18;14.82;64.13
66670;DHT22;53568;52.164;4.472;2023-06-04T02:07:45;14.95;63.43
66670;DHT22;53568;52.164;4.472;2023-06-04T02:10:15;14.95;63.51
66670;DHT22;53568;52.164;4.472;2023-06-04T02:12:53;14.80;63.21
66670;DHT22;53568;52.164;4.472;2023-06-04T02:15:19;14.86;63.75
66670;DHT22;53568;52.164;4.472;2023-06-04T02:17:44;14.79;63.96
66670;DHT22;53568;52.164;4.472;2023-06-04T02:20:11;14.80;64.34
66670;DHT22;53568;52.164;4.472;2023-06-04T02:22:37;14.76;63.96
66670;DHT22;53568;52.164;4.472;2023-06-04T02:25:04;14.87;63.67
66670;DHT22;53568;52.164;4.472;2023-06-04T02:27:30;14.75;63.77
66670;DHT22;53568;52.164;4.472;2023-06-04T02:29:55;14.49;64.42
66670;DHT22;53568;52.164;4.472;2023-06-04T02:32:21;14.61;64.40
66670;DHT22;53568;52.164;4.472;2023-06-04T02:34:46;14.65;64.41
66670;DHT22;53568;52.164;4.472;2023-06-04T02:37:12;14.75;64.23
66670;DHT22;53568;52.164;4.472;2023-06-04T02:39:37;14.66;64.38
66670;DHT22;53568;52.164;4.472;2023-06-04T02:42:03;14.69;64.43
66670;DHT22;53568;52.164;4.472;2023-06-04T02:44:31;14.61;64.26
66670;DHT22;53568;52.164;4.472;2023-06-04T02:46:57;14.52;64.74
66670;DHT22;53568;52.164;4.472;2023-06-04T02:49:23;14.52;64.91
66670;DHT22;53568;52.164;4.472;2023-06-04T02:51:48;14.58;64.78
66670;DHT22;53568;52.164;4.472;2023-06-04T02:54:14;14.45;65.13
66670;DHT22;53568;52.164;4.472;2023-06-04T02:56:40;14.33;65.37
66670;DHT22;53568;52.164;4.472;2023-06-04T02:59:06;14.26;65.50
66670;DHT22;53568;52.164;4.472;2023-06-04T03:01:35;14.22;65.80
66670;DHT22;53568;52.164;4.472;2023-06-04T03:04:00;14.04;66.22
66670;DHT22;53568;52.164;4.472;2023-06-04T03:06:29;14.12;65.87
66670;DHT22;53568;52.164;4.472;2023-06-04T03:08:54;14.02;66.23
66670;DHT22;53568;52.164;4.472;2023-06-04T03:11:21;13.94;66.06
66670;DHT22;53568;52.164;4.472;2023-06-04T03:13:47;13.91;66.14
66670;DHT22;53568;52.164;4.472;2023-06-04T03:16:13;13.75;66.51
66670;DHT22;53568;52.164;4.472;2023-06-04T03:18:43;13.81;66.25
66670;DHT22;53568;52.164;4.472;2023-06-04T03:21:09;13.92;65.92
66670;DHT22;53568;52.164;4.472;2023-06-04T03:23:37;13.78;65.95
66670;DHT22;53568;52.164;4.472;2023-06-04T03:26:04;13.73;66.25
66670;DHT22;53568;52.164;4.472;2023-06-04T03:28:31;13.95;65.61
66670;DHT22;53568;52.164;4.472;2023-06-04T03:30:57;14.00;65.43
66670;DHT22;53568;52.164;4.472;2023-06-04T03:33:23;13.91;65.57
66670;DHT22;53568;52.164;4.472;2023-06-04T03:35:50;13.85;65.83
66670;DHT22;53568;52.164;4.472;2023-06-04T03:38:15;13.78;65.70
66670;DHT22;53568;52.164;4.472;2023-06-04T03:40:41;13.89;65.52
66670;DHT22;53568;52.164;4.472;2023-06-04T03:43:07;13.63;66.54
66670;DHT22;53568;52.164;4.472;2023-06-04T03:45:32;13.58;66.94
66670;DHT22;53568;52.164;4.472;2023-06-04T03:47:58;13.58;66.90
66670;DHT22;53568;52.164;4.472;2023-06-04T03:50:23;13.70;66.80
66670;DHT22;53568;52.164;4.472;2023-06-04T03:52:49;13.71;66.68
66670;DHT22;53568;52.164;4.472;2023-06-04T03:55:15;13.65;67.17
66670;DHT22;53568;52.164;4.472;2023-06-04T03:57:41;13.58;67.45
66670;DHT22;53568;52.164;4.472;2023-06-04T04:00:10;13.60;67.48
66670;DHT22;53568;52.164;4.472;2023-06-04T04:02:38;13.75;67.04
66670;DHT22;53568;52.164;4.472;2023-06-04T04:05:04;13.63;67.40
66670;DHT22;53568;52.164;4.472;2023-06-04T04:07:29;13.77;67.26
66670;DHT22;53568;52.164;4.472;2023-06-04T04:09:55;13.92;66.81
66670;DHT22;53568;52.164;4.472;2023-06-04T04:12:21;13.94;66.94
66670;DHT22;53568;52.164;4.472;2023-06-04T04:14:46;13.85;67.44
66670;DHT22;53568;52.164;4.472;2023-06-04T04:17:14;13.64;68.35
66670;DHT22;53568;52.164;4.472;2023-06-04T04:19:39;13.64;68.80
66670;DHT22;53568;52.164;4.472;2023-06-04T04:22:05;13.68;68.79
66670;DHT22;53568;52.164;4.472;2023-06-04T04:24:32;13.79;68.63
66670;DHT22;53568;52.164;4.472;2023-06-04T04:26:59;13.58;69.19
66670;DHT22;53568;52.164;4.472;2023-06-04T04:29:25;13.50;69.67
66670;DHT22;53568;52.164;4.472;2023-06-04T04:31:51;13.67;69.63
66670;DHT22;53568;52.164;4.472;2023-06-04T04:34:17;13.53;69.96
66670;DHT22;53568;52.164;4.472;2023-06-04T04:36:45;13.57;70.12
66670;DHT22;53568;52.164;4.472;2023-06-04T04:39:23;13.60;70.06
66670;DHT22;53568;52.164;4.472;2023-06-04T04:41:50;13.58;70.50
66670;DHT22;53568;52.164;4.472;2023-06-04T04:44:15;13.73;70.30
66670;DHT22;53568;52.164;4.472;2023-06-04T04:46:41;13.84;70.15
66670;DHT22;53568;52.164;4.472;2023-06-04T04:49:07;13.88;70.03
66670;DHT22;53568;52.164;4.472;2023-06-04T04:51:32;13.89;70.39
66670;DHT22;53568;52.164;4.472;2023-06-04T04:53:59;13.77;70.52
66670;DHT22;53568;52.164;4.472;2023-06-04T04:56:28;13.78;70.91
66670;DHT22;53568;52.164;4.472;2023-06-04T04:58:56;13.88;70.68
66670;DHT22;53568;52.164;4.472;2023-06-04T05:01:22;13.92;71.06
66670;DHT22;53568;52.164;4.472;2023-06-04T05:03:49;14.01;70.46
66670;DHT22;53568;52.164;4.472;2023-06-04T05:06:14;14.08;70.44
66670;DHT22;53568;52.164;4.472;2023-06-04T05:08:40;13.98;70.86
66670;DHT22;53568;52.164;4.472;2023-06-04T05:11:07;13.94;71.05
66670;DHT22;53568;52.164;4.472;2023-06-04T05:13:33;14.17;70.79
66670;DHT22;53568;52.164;4.472;2023-06-04T05:15:58;14.05;71.01
66670;DHT22;53568;52.164;4.472;2023-06-04T05:18:25;14.39;70.24
66670;DHT22;53568;52.164;4.472;2023-06-04T05:20:55;14.22;70.73
66670;DHT22;53568;52.164;4.472;2023-06-04T05:23:20;14.36;70.52
66670;DHT22;53568;52.164;4.472;2023-06-04T05:25:46;14.17;71.01
66670;DHT22;53568;52.164;4.472;2023-06-04T05:28:14;14.33;70.84
66670;DHT22;53568;52.164;4.472;2023-06-04T05:30:40;14.39;70.73
66670;DHT22;53568;52.164;4.472;2023-06-04T05:33:07;14.46;70.54
66670;DHT22;53568;52.164;4.472;2023-06-04T05:35:47;14.52;70.57
66670;DHT22;53568;52.164;4.472;2023-06-04T05:38:14;14.69;70.31
66670;DHT22;53568;52.164;4.472;2023-06-04T05:40:45;14.65;70.69
66670;DHT22;53568;52.164;4.472;2023-06-04T05:43:11;14.85;70.04
66670;DHT22;53568;52.164;4.472;2023-06-04T05:45:37;14.76;70.26
66670;DHT22;53568;52.164;4.472;2023-06-04T05:48:03;14.96;69.58
66670;DHT22;53568;52.164;4.472;2023-06-04T05:50:29;15.07;69.27
66670;DHT22;53568;52.164;4.472;2023-06-04T05:52:55;15.16;69.36
66670;DHT22;53568;52.164;4.472;2023-06-04T05:55:22;15.31;68.61
66670;DHT22;53568;52.164;4.472;2023-06-04T05:57:48;15.37;68.53
66670;DHT22;53568;52.164;4.472;2023-06-04T06:00:14;15.55;67.58
66670;DHT22;53568;52.164;4.472;2023-06-04T06:02:40;15.70;66.74
66670;DHT22;53568;52.164;4.472;2023-06-04T06:05:06;15.71;66.49
66670;DHT22;53568;52.164;4.472;2023-06-04T06:07:34;15.71;66.28
66670;DHT22;53568;52.164;4.472;2023-06-04T06:10:00;15.75;66.33
66670;DHT22;53568;52.164;4.472;2023-06-04T06:12:25;15.82;65.84
66670;DHT22;53568;52.164;4.472;2023-06-04T06:14:51;15.90;65.49
66670;DHT22;53568;52.164;4.472;2023-06-04T06:17:16;15.85;65.85
66670;DHT22;53568;52.164;4.472;2023-06-04T06:19:42;15.78;65.90
66670;DHT22;53568;52.164;4.472;2023-06-04T06:22:07;15.85;66.01
66670;DHT22;53568;52.164;4.472;2023-06-04T06:24:33;15.68;66.44
66670;DHT22;53568;52.164;4.472;2023-06-04T06:26:59;15.70;66.08
66670;DHT22;53568;52.164;4.472;2023-06-04T06:29:24;15.68;65.83
66670;DHT22;53568;52.164;4.472;2023-06-04T06:31:50;15.62;65.71
66670;DHT22;53568;52.164;4.472;2023-06-04T06:34:16;15.68;65.95
66670;DHT22;53568;52.164;4.472;2023-06-04T06:36:41;15.72;66.09
66670;DHT22;53568;52.164;4.472;2023-06-04T06:39:07;15.94;65.02
66670;DHT22;53568;52.164;4.472;2023-06-04T06:41:33;16.02;65.63
66670;DHT22;53568;52.164;4.472;2023-06-04T06:43:59;16.15;65.79
66670;DHT22;53568;52.164;4.472;2023-06-04T06:46:25;16.18;65.61
66670;DHT22;53568;52.164;4.472;2023-06-04T06:48:50;16.28;63.57
66670;DHT22;53568;52.164;4.472;2023-06-04T06:51:16;16.45;63.52
66670;DHT22;53568;52.164;4.472;2023-06-04T06:53:42;16.41;63.96
66670;DHT22;53568;52.164;4.472;2023-06-04T06:56:08;16.55;62.76
66670;DHT22;53568;52.164;4.472;2023-06-04T06:58:33;16.59;61.56
66670;DHT22;53568;52.164;4.472;2023-06-04T07:00:59;16.44;63.10
66670;DHT22;53568;52.164;4.472;2023-06-04T07:03:25;16.39;62.13
66670;DHT22;53568;52.164;4.472;2023-06-04T07:05:50;16.58;60.96
66670;DHT22;53568;52.164;4.472;2023-06-04T07:08:16;16.66;61.22
66670;DHT22;53568;52.164;4.472;2023-06-04T07:10:41;16.76;59.73
66670;DHT22;53568;52.164;4.472;2023-06-04T07:13:07;16.83;59.70
66670;DHT22;53568;52.164;4.472;2023-06-04T07:15:32;16.83;58.31
66670;DHT22;53568;52.164;4.472;2023-06-04T07:17:58;16.89;57.80
66670;DHT22;53568;52.164;4.472;2023-06-04T07:20:23;17.03;58.64
66670;DHT22;53568;52.164;4.472;2023-06-04T07:22:49;17.22;58.87
66670;DHT22;53568;52.164;4.472;2023-06-04T07:25:14;17.40;57.01
66670;DHT22;53568;52.164;4.472;2023-06-04T07:27:40;17.33;56.28
66670;DHT22;53568;52.164;4.472;2023-06-04T07:30:06;17.13;56.21
66670;DHT22;53568;52.164;4.472;2023-06-04T07:32:32;17.28;56.43
66670;DHT22;53568;52.164;4.472;2023-06-04T07:34:58;17.40;56.67
66670;DHT22;53568;52.164;4.472;2023-06-04T07:37:24;17.40;54.75
66670;DHT22;53568;52.164;4.472;2023-06-04T07:39:49;17.44;54.14
66670;DHT22;53568;52.164;4.472;2023-06-04T07:42:15;17.46;55.35
66670;DHT22;53568;52.164;4.472;2023-06-04T07:44:40;17.43;55.35
66670;DHT22;53568;52.164;4.472;2023-06-04T07:47:06;17.13;55.94
66670;DHT22;53568;52.164;4.472;2023-06-04T07:49:34;17.30;55.19
66670;DHT22;53568;52.164;4.472;2023-06-04T07:52:00;17.55;54.98
66670;DHT22;53568;52.164;4.472;2023-06-04T07:54:25;17.61;53.00
66670;DHT22;53568;52.164;4.472;2023-06-04T07:56:51;17.64;52.94
66670;DHT22;53568;52.164;4.472;2023-06-04T07:59:24;17.57;52.76
66670;DHT22;53568;52.164;4.472;2023-06-04T08:01:50;17.70;52.13
66670;DHT22;53568;52.164;4.472;2023-06-04T08:04:19;17.88;50.65
66670;DHT22;53568;52.164;4.472;2023-06-04T08:06:44;18.12;49.72
66670;DHT22;53568;52.164;4.472;2023-06-04T08:09:10;18.11;53.34
66670;DHT22;53568;52.164;4.472;2023-06-04T08:11:37;18.19;54.16
66670;DHT22;53568;52.164;4.472;2023-06-04T08:14:02;18.19;54.15
66670;DHT22;53568;52.164;4.472;2023-06-04T08:16:28;18.16;53.21
66670;DHT22;53568;52.164;4.472;2023-06-04T08:18:54;18.11;54.31
66670;DHT22;53568;52.164;4.472;2023-06-04T08:21:26;18.18;54.06
66670;DHT22;53568;52.164;4.472;2023-06-04T08:23:52;18.19;54.51
66670;DHT22;53568;52.164;4.472;2023-06-04T08:26:18;18.32;53.16
66670;DHT22;53568;52.164;4.472;2023-06-04T08:28:47;18.39;52.84
66670;DHT22;53568;52.164;4.472;2023-06-04T08:31:13;18.26;53.95
66670;DHT22;53568;52.164;4.472;2023-06-04T08:33:39;18.32;53.83
66670;DHT22;53568;52.164;4.472;2023-06-04T08:36:05;18.08;51.60
66670;DHT22;53568;52.164;4.472;2023-06-04T08:38:30;18.02;52.29
66670;DHT22;53568;52.164;4.472;2023-06-04T08:41:03;18.02;52.75
66670;DHT22;53568;52.164;4.472;2023-06-04T08:43:32;17.90;54.21
66670;DHT22;53568;52.164;4.472;2023-06-04T08:45:59;17.87;54.81
66670;DHT22;53568;52.164;4.472;2023-06-04T08:48:32;18.22;53.36
66670;DHT22;53568;52.164;4.472;2023-06-04T08:51:02;18.35;51.98
66670;DHT22;53568;52.164;4.472;2023-06-04T08:53:30;18.36;52.41
66670;DHT22;53568;52.164;4.472;2023-06-04T08:55:56;18.53;51.73
66670;DHT22;53568;52.164;4.472;2023-06-04T08:58:23;18.65;50.83
66670;DHT22;53568;52.164;4.472;2023-06-04T09:00:49;18.75;50.44
66670;DHT22;53568;52.164;4.472;2023-06-04T09:03:16;18.55;50.09
66670;DHT22;53568;52.164;4.472;2023-06-04T09:05:44;18.32;50.31
66670;DHT22;53568;52.164;4.472;2023-06-04T09:08:16;18.43;50.60
66670;DHT22;53568;52.164;4.472;2023-06-04T09:10:44;18.73;50.16
66670;DHT22;53568;52.164;4.472;2023-06-04T09:13:14;18.90;47.37
66670;DHT22;53568;52.164;4.472;2023-06-04T09:15:40;18.96;48.37
66670;DHT22;53568;52.164;4.472;2023-06-04T09:18:06;19.00;48.33
66670;DHT22;53568;52.164;4.472;2023-06-04T09:20:31;18.97;48.29
66670;DHT22;53568;52.164;4.472;2023-06-04T09:22:58;18.93;48.42
66670;DHT22;53568;52.164;4.472;2023-06-04T09:25:26;19.09;48.30
66670;DHT22;53568;52.164;4.472;2023-06-04T09:27:53;18.77;48.43
66670;DHT22;53568;52.164;4.472;2023-06-04T09:30:21;18.77;47.86
66670;DHT22;53568;52.164;4.472;2023-06-04T09:32:47;18.87;47.65
66670;DHT22;53568;52.164;4.472;2023-06-04T09:35:16;18.92;47.57
66670;DHT22;53568;52.164;4.472;2023-06-04T09:37:43;19.16;47.22
66670;DHT22;53568;52.164;4.472;2023-06-04T09:40:16;19.20;47.92
66670;DHT22;53568;52.164;4.472;2023-06-04T09:42:47;19.40;48.02
66670;DHT22;53568;52.164;4.472;2023-06-04T09:45:33;19.65;47.85
66670;DHT22;53568;52.164;4.472;2023-06-04T09:48:00;19.78;47.09
66670;DHT22;53568;52.164;4.472;2023-06-04T09:50:33;19.34;47.07
66670;DHT22;53568;52.164;4.472;2023-06-04T09:53:00;19.30;46.73
66670;DHT22;53568;52.164;4.472;2023-06-04T09:55:27;19.20;46.90
66670;DHT22;53568;52.164;4.472;2023-06-04T09:57:53;19.54;46.43
66670;DHT22;53568;52.164;4.472;2023-06-04T10:00:22;19.37;46.49
66670;DHT22;53568;52.164;4.472;2023-06-04T10:02:51;19.17;46.99
66670;DHT22;53568;52.164;4.472;2023-06-04T10:05:21;19.00;46.79
66670;DHT22;53568;52.164;4.472;2023-06-04T10:07:51;19.20;46.34
66670;DHT22;53568;52.164;4.472;2023-06-04T10:10:20;19.35;46.43
66670;DHT22;53568;52.164;4.472;2023-06-04T10:12:52;19.44;47.02
66670;DHT22;53568;52.164;4.472;2023-06-04T10:15:20;19.30;45.90
66670;DHT22;53568;52.164;4.472;2023-06-04T10:17:47;19.50;46.16
66670;DHT22;53568;52.164;4.472;2023-06-04T10:20:13;19.38;44.95
66670;DHT22;53568;52.164;4.472;2023-06-04T10:22:40;19.61;44.94
66670;DHT22;53568;52.164;4.472;2023-06-04T10:25:07;19.77;45.05
66670;DHT22;53568;52.164;4.472;2023-06-04T10:27:34;19.77;44.85
66670;DHT22;53568;52.164;4.472;2023-06-04T10:30:04;19.77;44.52
66670;DHT22;53568;52.164;4.472;2023-06-04T10:32:30;19.77;43.84
66670;DHT22;53568;52.164;4.472;2023-06-04T10:34:56;19.81;44.74
66670;DHT22;53568;52.164;4.472;2023-06-04T10:37:27;19.82;43.49
66670;DHT22;53568;52.164;4.472;2023-06-04T10:39:57;19.82;42.95
66670;DHT22;53568;52.164;4.472;2023-06-04T10:42:24;19.65;42.58
66670;DHT22;53568;52.164;4.472;2023-06-04T10:44:54;19.75;42.70
66670;DHT22;53568;52.164;4.472;2023-06-04T10:47:20;19.94;42.04
66670;DHT22;53568;52.164;4.472;2023-06-04T10:49:48;20.11;42.79
66670;DHT22;53568;52.164;4.472;2023-06-04T10:52:14;20.15;41.59
66670;DHT22;53568;52.164;4.472;2023-06-04T10:54:42;20.33;41.16
66670;DHT22;53568;52.164;4.472;2023-06-04T10:57:12;20.29;40.85
66670;DHT22;53568;52.164;4.472;2023-06-04T10:59:38;20.17;40.13
66670;DHT22;53568;52.164;4.472;2023-06-04T11:02:08;20.11;40.21
66670;DHT22;53568;52.164;4.472;2023-06-04T11:04:35;19.81;40.87
66670;DHT22;53568;52.164;4.472;2023-06-04T11:07:06;19.91;41.31
66670;DHT22;53568;52.164;4.472;2023-06-04T11:09:35;19.97;41.50
66670;DHT22;53568;52.164;4.472;2023-06-04T11:12:04;20.11;41.92
66670;DHT22;53568;52.164;4.472;2023-06-04T11:14:30;20.29;41.04
66670;DHT22;53568;52.164;4.472;2023-06-04T11:16:55;20.28;40.68
66670;DHT22;53568;52.164;4.472;2023-06-04T11:19:21;20.28;40.37
66670;DHT22;53568;52.164;4.472;2023-06-04T11:21:48;20.26;41.19
66670;DHT22;53568;52.164;4.472;2023-06-04T11:24:14;20.11;40.72
66670;DHT22;53568;52.164;4.472;2023-06-04T11:26:39;20.41;40.85
66670;DHT22;53568;52.164;4.472;2023-06-04T11:29:11;20.59;39.69
66670;DHT22;53568;52.164;4.472;2023-06-04T11:31:46;20.63;39.43
66670;DHT22;53568;52.164;4.472;2023-06-04T11:34:27;20.71;39.74
66670;DHT22;53568;52.164;4.472;2023-06-04T11:36:53;20.77;39.19
66670;DHT22;53568;52.164;4.472;2023-06-04T11:39:20;20.79;39.94
66670;DHT22;53568;52.164;4.472;2023-06-04T11:41:47;20.82;39.98
66670;DHT22;53568;52.164;4.472;2023-06-04T11:44:13;20.82;39.63
66670;DHT22;53568;52.164;4.472;2023-06-04T11:46:41;20.82;39.18
66670;DHT22;53568;52.164;4.472;2023-06-04T11:49:12;21.08;39.14
66670;DHT22;53568;52.164;4.472;2023-06-04T11:51:46;21.22;39.02
66670;DHT22;53568;52.164;4.472;2023-06-04T11:54:12;21.33;38.30
66670;DHT22;53568;52.164;4.472;2023-06-04T11:56:37;21.41;37.93
66670;DHT22;53568;52.164;4.472;2023-06-04T11:59:03;21.40;38.02
66670;DHT22;53568;52.164;4.472;2023-06-04T12:01:30;21.28;38.40
66670;DHT22;53568;52.164;4.472;2023-06-04T12:03:58;21.23;38.04
66670;DHT22;53568;52.164;4.472;2023-06-04T12:06:23;21.33;37.21
66670;DHT22;53568;52.164;4.472;2023-06-04T12:08:54;21.10;38.92
66670;DHT22;53568;52.164;4.472;2023-06-04T12:13:49;20.93;40.05
66670;DHT22;53568;52.164;4.472;2023-06-04T12:16:15;21.28;38.25
66670;DHT22;53568;52.164;4.472;2023-06-04T12:18:40;21.44;37.72
66670;DHT22;53568;52.164;4.472;2023-06-04T12:21:22;21.33;39.16
66670;DHT22;53568;52.164;4.472;2023-06-04T12:23:53;21.44;38.72
66670;DHT22;53568;52.164;4.472;2023-06-04T12:26:21;21.41;38.18
66670;DHT22;53568;52.164;4.472;2023-06-04T12:29:11;21.50;38.37
66670;DHT22;53568;52.164;4.472;2023-06-04T12:31:41;21.37;38.12
66670;DHT22;53568;52.164;4.472;2023-06-04T12:34:07;21.60;38.18
66670;DHT22;53568;52.164;4.472;2023-06-04T12:36:34;21.47;38.83
66670;DHT22;53568;52.164;4.472;2023-06-04T12:39:02;21.13;47.57
66670;DHT22;53568;52.164;4.472;2023-06-04T12:41:28;20.75;49.97
66670;DHT22;53568;52.164;4.472;2023-06-04T12:43:54;20.53;49.60
66670;DHT22;53568;52.164;4.472;2023-06-04T12:46:20;20.38;49.50
66670;DHT22;53568;52.164;4.472;2023-06-04T12:48:47;20.36;50.18
66670;DHT22;53568;52.164;4.472;2023-06-04T12:51:12;20.08;52.14
66670;DHT22;53568;52.164;4.472;2023-06-04T12:53:41;20.07;52.31
66670;DHT22;53568;52.164;4.472;2023-06-04T12:56:07;19.98;53.37
66670;DHT22;53568;52.164;4.472;2023-06-04T12:58:33;19.99;53.93
66670;DHT22;53568;52.164;4.472;2023-06-04T13:00:59;20.01;53.07
66670;DHT22;53568;52.164;4.472;2023-06-04T13:03:25;19.85;53.60
66670;DHT22;53568;52.164;4.472;2023-06-04T13:05:51;19.98;53.16
66670;DHT22;53568;52.164;4.472;2023-06-04T13:08:19;20.07;53.00
66670;DHT22;53568;52.164;4.472;2023-06-04T13:10:49;20.33;52.90
66670;DHT22;53568;52.164;4.472;2023-06-04T13:13:16;20.33;53.45
66670;DHT22;53568;52.164;4.472;2023-06-04T13:15:42;20.42;52.58
66670;DHT22;53568;52.164;4.472;2023-06-04T13:18:11;20.56;51.91
66670;DHT22;53568;52.164;4.472;2023-06-04T13:20:39;20.39;52.85
66670;DHT22;53568;52.164;4.472;2023-06-04T13:23:05;20.43;51.91
66670;DHT22;53568;52.164;4.472;2023-06-04T13:25:34;20.21;52.66
66670;DHT22;53568;52.164;4.472;2023-06-04T13:28:04;20.04;53.04
66670;DHT22;53568;52.164;4.472;2023-06-04T13:30:30;20.04;53.02
66670;DHT22;53568;52.164;4.472;2023-06-04T13:32:56;19.95;53.83
66670;DHT22;53568;52.164;4.472;2023-06-04T13:35:24;19.99;54.03
66670;DHT22;53568;52.164;4.472;2023-06-04T13:37:49;19.89;54.21
66670;DHT22;53568;52.164;4.472;2023-06-04T13:40:15;19.79;55.19
66670;DHT22;53568;52.164;4.472;2023-06-04T13:42:40;19.94;55.28
66670;DHT22;53568;52.164;4.472;2023-06-04T13:45:08;20.11;55.22
66670;DHT22;53568;52.164;4.472;2023-06-04T13:47:34;19.94;55.05
66670;DHT22;53568;52.164;4.472;2023-06-04T13:49:59;20.11;55.09
66670;DHT22;53568;52.164;4.472;2023-06-04T13:52:25;19.82;53.43
66670;DHT22;53568;52.164;4.472;2023-06-04T13:54:53;19.91;54.41
66670;DHT22;53568;52.164;4.472;2023-06-04T13:57:19;19.94;54.73
66670;DHT22;53568;52.164;4.472;2023-06-04T13:59:45;19.99;54.84
66670;DHT22;53568;52.164;4.472;2023-06-04T14:02:10;20.18;54.80
66670;DHT22;53568;52.164;4.472;2023-06-04T14:04:36;19.78;54.20
66670;DHT22;53568;52.164;4.472;2023-06-04T14:07:01;19.65;54.96
66670;DHT22;53568;52.164;4.472;2023-06-04T14:09:30;19.78;55.94
66670;DHT22;53568;52.164;4.472;2023-06-04T14:11:56;19.79;54.96
66670;DHT22;53568;52.164;4.472;2023-06-04T14:14:21;19.74;55.38
66670;DHT22;53568;52.164;4.472;2023-06-04T14:16:47;19.55;56.35
66670;DHT22;53568;52.164;4.472;2023-06-04T14:19:14;19.71;55.83
66670;DHT22;53568;52.164;4.472;2023-06-04T14:21:41;19.68;55.41
66670;DHT22;53568;52.164;4.472;2023-06-04T14:24:08;19.60;55.95
66670;DHT22;53568;52.164;4.472;2023-06-04T14:26:35;19.44;56.49
66670;DHT22;53568;52.164;4.472;2023-06-04T14:29:01;19.54;56.10
66670;DHT22;53568;52.164;4.472;2023-06-04T14:31:27;19.24;55.30
66670;DHT22;53568;52.164;4.472;2023-06-04T14:33:52;19.04;56.79
66670;DHT22;53568;52.164;4.472;2023-06-04T14:36:18;19.06;57.34
66670;DHT22;53568;52.164;4.472;2023-06-04T14:38:44;19.13;57.14
66670;DHT22;53568;52.164;4.472;2023-06-04T14:41:10;19.33;56.91
66670;DHT22;53568;52.164;4.472;2023-06-04T14:43:36;19.35;56.84
66670;DHT22;53568;52.164;4.472;2023-06-04T14:46:02;19.31;57.21
66670;DHT22;53568;52.164;4.472;2023-06-04T14:48:27;19.30;57.57
66670;DHT22;53568;52.164;4.472;2023-06-04T14:50:56;19.31;57.68
66670;DHT22;53568;52.164;4.472;2023-06-04T14:53:23;19.26;57.23
66670;DHT22;53568;52.164;4.472;2023-06-04T14:55:49;19.09;57.35
66670;DHT22;53568;52.164;4.472;2023-06-04T14:58:15;19.03;57.67
66670;DHT22;53568;52.164;4.472;2023-06-04T15:00:41;19.02;57.44
66670;DHT22;53568;52.164;4.472;2023-06-04T15:03:07;19.11;57.15
66670;DHT22;53568;52.164;4.472;2023-06-04T15:05:33;19.10;57.40
66670;DHT22;53568;52.164;4.472;2023-06-04T15:07:59;19.03;56.91
66670;DHT22;53568;52.164;4.472;2023-06-04T15:10:25;18.87;58.05
66670;DHT22;53568;52.164;4.472;2023-06-04T15:12:55;19.02;57.89
66670;DHT22;53568;52.164;4.472;2023-06-04T15:15:22;19.03;57.75
66670;DHT22;53568;52.164;4.472;2023-06-04T15:17:48;19.06;57.99
66670;DHT22;53568;52.164;4.472;2023-06-04T15:20:14;19.19;58.27
66670;DHT22;53568;52.164;4.472;2023-06-04T15:22:41;19.30;57.80
66670;DHT22;53568;52.164;4.472;2023-06-04T15:25:07;19.35;57.33
66670;DHT22;53568;52.164;4.472;2023-06-04T15:27:32;19.41;57.32
66670;DHT22;53568;52.164;4.472;2023-06-04T15:29:58;19.17;58.16
66670;DHT22;53568;52.164;4.472;2023-06-04T15:32:23;19.06;59.22
66670;DHT22;53568;52.164;4.472;2023-06-04T15:34:49;19.27;58.20